createdAt,value
2022-09-26T00:00:54.128Z,0.00
2022-09-26T00:01:54.212Z,0.00
2022-09-26T00:02:54.188Z,0.00
2022-09-26T00:03:54.158Z,0.00
2022-09-26T00:04:54.194Z,0.00
2022-09-26T00:05:54.225Z,0.00
2022-09-26T00:06:54.267Z,0.00
2022-09-26T00:07:54.300Z,0.00
2022-09-26T00:08:54.331Z,0.00
2022-09-26T00:09:54.365Z,0.00
2022-09-26T00:10:54.394Z,0.00
2022-09-26T00:11:54.433Z,0.00
2022-09-26T00:12:54.464Z,0.00
2022-09-26T00:13:54.493Z,0.00
2022-09-26T00:14:54.530Z,0.00
2022-09-26T00:15:54.566Z,0.00
2022-09-26T00:16:54.682Z,0.00
2022-09-26T00:17:54.627Z,0.00
2022-09-26T00:18:54.664Z,0.00
2022-09-26T00:19:54.697Z,0.00
2022-09-26T00:20:54.734Z,0.00
2022-09-26T00:21:54.763Z,0.00
2022-09-26T00:22:54.798Z,0.00
2022-09-26T00:23:54.834Z,0.00
2022-09-26T00:24:54.867Z,0.00
2022-09-26T00:25:54.897Z,0.00
2022-09-26T00:26:54.933Z,0.00
2022-09-26T00:27:54.967Z,0.00
2022-09-26T00:28:55.001Z,0.00
2022-09-26T00:29:55.037Z,0.00
2022-09-26T00:30:55.168Z,0.00
2022-09-26T00:31:55.103Z,0.00
2022-09-26T00:32:55.221Z,0.00
2022-09-26T00:33:55.169Z,0.00
2022-09-26T00:34:55.205Z,0.00
2022-09-26T00:35:55.233Z,0.00
2022-09-26T00:36:55.269Z,0.00
2022-09-26T00:37:55.303Z,0.00
2022-09-26T00:38:55.335Z,0.00
2022-09-26T00:39:55.368Z,0.00
2022-09-26T00:40:55.483Z,0.00
2022-09-26T00:41:55.435Z,0.00
2022-09-26T00:42:55.472Z,0.00
2022-09-26T00:43:55.503Z,0.00
2022-09-26T00:44:55.538Z,0.00
2022-09-26T00:45:55.620Z,0.00
2022-09-26T00:46:55.611Z,0.00
2022-09-26T00:47:55.641Z,0.00
2022-09-26T00:48:55.672Z,0.00
2022-09-26T00:49:55.702Z,0.00
2022-09-26T00:50:55.740Z,0.00
2022-09-26T00:51:55.775Z,0.00
2022-09-26T00:52:55.804Z,0.00
2022-09-26T00:53:55.837Z,0.00
2022-09-26T00:54:55.873Z,0.00
2022-09-26T00:55:55.907Z,0.00
2022-09-26T00:56:55.945Z,0.00
2022-09-26T00:57:55.971Z,0.00
2022-09-26T00:58:56.010Z,0.00
2022-09-26T00:59:56.039Z,0.00
2022-09-26T01:00:56.177Z,0.00
2022-09-26T01:01:56.207Z,0.00
2022-09-26T01:02:56.142Z,0.00
2022-09-26T01:03:56.171Z,0.00
2022-09-26T01:04:56.212Z,0.00
2022-09-26T01:05:56.239Z,0.00
2022-09-26T01:06:56.274Z,0.00
2022-09-26T01:07:56.306Z,0.00
2022-09-26T01:08:56.342Z,0.00
2022-09-26T01:09:56.373Z,0.00
2022-09-26T01:10:56.409Z,0.00
2022-09-26T01:11:56.440Z,0.00
2022-09-26T01:12:56.476Z,0.00
2022-09-26T01:13:56.518Z,0.00
2022-09-26T01:14:56.542Z,0.00
2022-09-26T01:15:56.575Z,0.00
2022-09-26T01:16:56.672Z,0.00
2022-09-26T01:17:56.640Z,0.00
2022-09-26T01:18:56.676Z,0.00
2022-09-26T01:19:56.708Z,0.00
2022-09-26T01:20:56.746Z,0.00
2022-09-26T01:21:56.776Z,0.00
2022-09-26T01:22:56.809Z,0.00
2022-09-26T01:23:56.844Z,0.00
2022-09-26T01:24:56.877Z,0.00
2022-09-26T01:25:56.910Z,0.00
2022-09-26T01:26:56.943Z,0.00
2022-09-26T01:27:56.980Z,0.00
2022-09-26T01:28:57.010Z,0.00
2022-09-26T01:29:57.041Z,0.00
2022-09-26T01:30:57.117Z,0.00
2022-09-26T01:31:57.110Z,0.00
2022-09-26T01:32:57.146Z,0.00
2022-09-26T01:33:57.177Z,0.00
2022-09-26T01:34:57.210Z,0.00
2022-09-26T01:35:57.243Z,0.00
2022-09-26T01:36:57.280Z,0.00
2022-09-26T01:37:57.309Z,0.00
2022-09-26T01:38:57.344Z,0.00
2022-09-26T01:39:57.377Z,0.00
2022-09-26T01:40:57.514Z,0.00
2022-09-26T01:41:57.535Z,0.00
2022-09-26T01:42:57.499Z,0.00
2022-09-26T01:43:57.523Z,0.00
2022-09-26T01:44:57.559Z,0.00
2022-09-26T01:45:57.628Z,0.00
2022-09-26T01:46:57.625Z,0.00
2022-09-26T01:47:57.660Z,0.00
2022-09-26T01:48:57.691Z,0.00
2022-09-26T01:49:57.723Z,0.00
2022-09-26T01:50:57.760Z,0.00
2022-09-26T01:51:57.790Z,0.00
2022-09-26T01:52:57.827Z,0.00
2022-09-26T01:53:57.856Z,0.00
2022-09-26T01:54:57.892Z,0.00
2022-09-26T01:55:57.926Z,0.00
2022-09-26T01:56:57.962Z,0.00
2022-09-26T01:57:57.992Z,0.00
2022-09-26T01:58:58.024Z,0.00
2022-09-26T01:59:58.057Z,0.00
2022-09-26T02:00:58.115Z,0.00
2022-09-26T02:01:58.181Z,0.00
2022-09-26T02:02:58.158Z,0.00
2022-09-26T02:03:58.194Z,0.00
2022-09-26T02:04:58.232Z,0.00
2022-09-26T02:05:58.257Z,0.00
2022-09-26T02:06:58.290Z,0.00
2022-09-26T02:07:58.329Z,0.00
2022-09-26T02:08:58.366Z,0.00
2022-09-26T02:09:58.391Z,0.00
2022-09-26T02:10:58.423Z,0.00
2022-09-26T02:11:58.463Z,0.00
2022-09-26T02:12:58.490Z,0.00
2022-09-26T02:13:58.522Z,0.00
2022-09-26T02:14:58.558Z,0.00
2022-09-26T02:15:58.590Z,0.00
2022-09-26T02:16:58.717Z,0.00
2022-09-26T02:17:58.656Z,0.00
2022-09-26T02:18:58.699Z,0.00
2022-09-26T02:19:58.723Z,0.00
2022-09-26T02:20:58.774Z,0.00
2022-09-26T02:21:58.795Z,0.00
2022-09-26T02:22:58.825Z,0.00
2022-09-26T02:23:58.856Z,0.00
2022-09-26T02:24:58.893Z,0.00
2022-09-26T02:25:58.920Z,0.00
2022-09-26T02:26:58.956Z,0.00
2022-09-26T02:27:58.989Z,0.00
2022-09-26T02:28:59.024Z,0.00
2022-09-26T02:29:59.055Z,0.00
2022-09-26T02:30:59.089Z,0.00
2022-09-26T02:31:59.142Z,0.00
2022-09-26T02:32:59.159Z,0.00
2022-09-26T02:33:59.189Z,0.00
2022-09-26T02:34:59.237Z,0.00
2022-09-26T02:35:59.259Z,0.00
2022-09-26T02:36:59.289Z,0.00
2022-09-26T02:37:59.321Z,0.00
2022-09-26T02:38:59.356Z,0.00
2022-09-26T02:39:59.388Z,0.00
2022-09-26T02:40:59.660Z,0.00
2022-09-26T02:41:59.453Z,0.00
2022-09-26T02:42:59.488Z,0.00
2022-09-26T02:43:59.527Z,0.00
2022-09-26T02:44:59.555Z,0.00
2022-09-26T02:45:59.596Z,0.00
2022-09-26T02:46:59.621Z,0.00
2022-09-26T02:47:59.654Z,0.00
2022-09-26T02:48:59.688Z,0.00
2022-09-26T02:49:59.720Z,0.00
2022-09-26T02:50:59.758Z,0.00
2022-09-26T02:51:59.787Z,0.00
2022-09-26T02:52:59.819Z,0.00
2022-09-26T02:53:59.852Z,0.00
2022-09-26T02:54:59.893Z,0.00
2022-09-26T02:55:59.932Z,0.00
2022-09-26T02:56:59.952Z,0.00
2022-09-26T02:57:59.986Z,0.00
2022-09-26T02:59:00.023Z,0.00
2022-09-26T03:00:00.051Z,0.00
2022-09-26T03:01:00.153Z,0.00
2022-09-26T03:02:00.122Z,0.00
2022-09-26T03:03:00.150Z,0.00
2022-09-26T03:04:00.184Z,0.00
2022-09-26T03:05:00.342Z,0.00
2022-09-26T03:06:00.250Z,0.00
2022-09-26T03:07:00.287Z,0.00
2022-09-26T03:08:00.316Z,0.00
2022-09-26T03:09:00.350Z,0.00
2022-09-26T03:10:00.383Z,0.00
2022-09-26T03:11:00.415Z,0.00
2022-09-26T03:12:00.449Z,0.00
2022-09-26T03:13:00.487Z,0.00
2022-09-26T03:14:00.515Z,0.00
2022-09-26T03:15:00.548Z,0.00
2022-09-26T03:16:00.633Z,0.00
2022-09-26T03:17:00.627Z,0.00
2022-09-26T03:18:00.650Z,0.00
2022-09-26T03:19:00.687Z,0.00
2022-09-26T03:20:00.714Z,0.00
2022-09-26T03:21:00.749Z,0.00
2022-09-26T03:22:00.780Z,0.00
2022-09-26T03:23:00.814Z,0.00
2022-09-26T03:24:00.849Z,0.00
2022-09-26T03:25:00.898Z,0.00
2022-09-26T03:26:00.958Z,0.00
2022-09-26T03:27:00.945Z,0.00
2022-09-26T03:28:00.980Z,0.00
2022-09-26T03:29:01.018Z,0.00
2022-09-26T03:30:01.044Z,0.00
2022-09-26T03:31:01.076Z,0.00
2022-09-26T03:32:01.288Z,0.00
2022-09-26T03:33:01.144Z,0.00
2022-09-26T03:34:01.184Z,0.00
2022-09-26T03:35:01.210Z,0.00
2022-09-26T03:36:01.243Z,0.00
2022-09-26T03:37:01.276Z,0.00
2022-09-26T03:38:01.310Z,0.00
2022-09-26T03:39:01.341Z,0.00
2022-09-26T03:40:01.377Z,0.00
2022-09-26T03:41:01.455Z,0.00
2022-09-26T03:42:01.440Z,0.00
2022-09-26T03:43:01.473Z,0.00
2022-09-26T03:44:01.509Z,0.00
2022-09-26T03:45:01.561Z,0.00
2022-09-26T03:46:01.623Z,0.00
2022-09-26T03:47:01.610Z,0.00
2022-09-26T03:48:01.641Z,0.00
2022-09-26T03:49:01.672Z,0.00
2022-09-26T03:50:01.708Z,0.00
2022-09-26T03:51:01.736Z,0.00
2022-09-26T03:52:01.775Z,0.00
2022-09-26T03:53:01.804Z,0.00
2022-09-26T03:54:01.836Z,0.00
2022-09-26T03:55:01.877Z,0.00
2022-09-26T03:56:01.903Z,0.00
2022-09-26T03:57:01.937Z,0.00
2022-09-26T03:58:01.972Z,0.00
2022-09-26T03:59:02.001Z,0.00
2022-09-26T04:00:02.036Z,0.00
2022-09-26T04:01:02.269Z,0.00
2022-09-26T04:02:02.187Z,0.00
2022-09-26T04:03:02.132Z,0.00
2022-09-26T04:04:02.169Z,0.00
2022-09-26T04:05:02.207Z,0.00
2022-09-26T04:06:02.237Z,0.00
2022-09-26T04:07:02.264Z,0.00
2022-09-26T04:08:02.300Z,0.00
2022-09-26T04:09:02.332Z,0.00
2022-09-26T04:10:02.371Z,0.00
2022-09-26T04:11:02.399Z,0.00
2022-09-26T04:12:02.430Z,0.00
2022-09-26T04:13:02.466Z,0.00
2022-09-26T04:14:02.496Z,0.00
2022-09-26T04:15:02.530Z,0.00
2022-09-26T04:16:02.642Z,0.00
2022-09-26T04:17:02.599Z,0.00
2022-09-26T04:18:02.630Z,0.00
2022-09-26T04:19:02.668Z,0.00
2022-09-26T04:20:02.694Z,0.00
2022-09-26T04:21:04.797Z,0.00
2022-09-26T04:22:02.770Z,0.00
2022-09-26T04:23:02.796Z,0.00
2022-09-26T04:24:02.825Z,0.00
2022-09-26T04:25:02.858Z,0.00
2022-09-26T04:26:02.895Z,0.00
2022-09-26T04:27:02.930Z,0.00
2022-09-26T04:28:02.958Z,0.00
2022-09-26T04:29:02.990Z,0.00
2022-09-26T04:30:03.022Z,0.00
2022-09-26T04:31:03.054Z,0.00
2022-09-26T04:32:03.140Z,0.00
2022-09-26T04:33:03.123Z,0.00
2022-09-26T04:34:03.153Z,0.00
2022-09-26T04:35:03.204Z,0.00
2022-09-26T04:36:03.223Z,0.00
2022-09-26T04:37:03.257Z,0.00
2022-09-26T04:38:03.285Z,0.00
2022-09-26T04:39:03.318Z,0.00
2022-09-26T04:40:03.359Z,0.00
2022-09-26T04:41:03.420Z,0.00
2022-09-26T04:42:03.417Z,0.00
2022-09-26T04:43:03.450Z,0.00
2022-09-26T04:44:03.485Z,0.00
2022-09-26T04:45:03.517Z,0.00
2022-09-26T04:46:03.664Z,0.00
2022-09-26T04:47:03.585Z,0.00
2022-09-26T04:48:03.616Z,0.00
2022-09-26T04:49:03.646Z,0.00
2022-09-26T04:50:03.680Z,0.00
2022-09-26T04:51:03.714Z,0.00
2022-09-26T04:52:03.745Z,0.00
2022-09-26T04:53:03.780Z,0.00
2022-09-26T04:54:03.811Z,0.00
2022-09-26T04:55:03.844Z,0.00
2022-09-26T04:56:03.876Z,0.00
2022-09-26T04:57:03.911Z,0.00
2022-09-26T04:58:03.941Z,0.00
2022-09-26T04:59:03.975Z,0.00
2022-09-26T05:00:04.011Z,0.00
2022-09-26T05:01:04.116Z,0.00
2022-09-26T05:02:04.126Z,0.00
2022-09-26T05:03:04.108Z,0.00
2022-09-26T05:04:04.171Z,0.00
2022-09-26T05:05:04.175Z,0.00
2022-09-26T05:06:04.206Z,0.00
2022-09-26T05:07:04.236Z,0.00
2022-09-26T05:08:04.270Z,0.00
2022-09-26T05:09:04.303Z,0.00
2022-09-26T05:10:04.335Z,0.00
2022-09-26T05:11:04.368Z,0.00
2022-09-26T05:12:04.403Z,0.00
2022-09-26T05:13:04.435Z,0.00
2022-09-26T05:14:04.465Z,0.00
2022-09-26T05:15:04.498Z,0.00
2022-09-26T05:16:04.553Z,0.00
2022-09-26T05:17:04.579Z,0.00
2022-09-26T05:18:04.597Z,5.63
2022-09-26T05:19:04.630Z,5.63
2022-09-26T05:20:04.664Z,5.63
2022-09-26T05:21:04.698Z,5.63
2022-09-26T05:22:04.729Z,5.63
2022-09-26T05:23:04.760Z,5.63
2022-09-26T05:24:04.802Z,5.63
2022-09-26T05:25:04.827Z,5.63
2022-09-26T05:26:04.859Z,5.63
2022-09-26T05:27:04.901Z,5.63
2022-09-26T05:28:04.924Z,5.63
2022-09-26T05:29:08.526Z,5.63
2022-09-26T05:30:04.989Z,5.63
2022-09-26T05:31:05.077Z,5.63
2022-09-26T05:32:05.178Z,5.63
2022-09-26T05:33:05.103Z,5.63
2022-09-26T05:34:05.119Z,5.63
2022-09-26T05:35:05.155Z,5.63
2022-09-26T05:36:05.186Z,5.63
2022-09-26T05:37:05.218Z,5.63
2022-09-26T05:38:05.250Z,5.63
2022-09-26T05:39:05.287Z,11.25
2022-09-26T05:40:05.315Z,11.25
2022-09-26T05:41:05.437Z,11.25
2022-09-26T05:42:05.381Z,11.25
2022-09-26T05:43:05.413Z,11.25
2022-09-26T05:44:05.447Z,11.25
2022-09-26T05:45:05.478Z,11.25
2022-09-26T05:46:05.512Z,11.25
2022-09-26T05:47:05.580Z,11.25
2022-09-26T05:48:05.576Z,11.25
2022-09-26T05:49:05.649Z,11.25
2022-09-26T05:50:05.641Z,11.25
2022-09-26T05:51:05.673Z,11.25
2022-09-26T05:52:05.707Z,11.25
2022-09-26T05:53:05.739Z,11.25
2022-09-26T05:54:05.771Z,11.25
2022-09-26T05:55:05.807Z,16.88
2022-09-26T05:56:05.840Z,16.88
2022-09-26T05:57:05.870Z,16.88
2022-09-26T05:58:05.904Z,16.88
2022-09-26T05:59:06.001Z,16.88
2022-09-26T06:00:05.976Z,16.88
2022-09-26T06:01:06.035Z,16.88
2022-09-26T06:02:06.112Z,16.88
2022-09-26T06:03:06.063Z,16.88
2022-09-26T06:04:06.097Z,16.88
2022-09-26T06:05:06.129Z,16.88
2022-09-26T06:06:06.165Z,16.88
2022-09-26T06:07:06.194Z,16.88
2022-09-26T06:08:06.228Z,16.88
2022-09-26T06:09:06.413Z,16.88
2022-09-26T06:10:06.294Z,16.88
2022-09-26T06:11:06.324Z,16.88
2022-09-26T06:12:06.361Z,16.88
2022-09-26T06:13:06.391Z,22.50
2022-09-26T06:14:06.430Z,22.50
2022-09-26T06:15:06.459Z,22.50
2022-09-26T06:16:06.581Z,22.50
2022-09-26T06:17:06.520Z,22.50
2022-09-26T06:18:06.553Z,22.50
2022-09-26T06:19:06.690Z,22.50
2022-09-26T06:20:06.619Z,22.50
2022-09-26T06:21:06.657Z,22.50
2022-09-26T06:22:06.689Z,22.50
2022-09-26T06:23:06.714Z,22.50
2022-09-26T06:24:06.750Z,22.50
2022-09-26T06:25:06.784Z,22.50
2022-09-26T06:26:06.812Z,22.50
2022-09-26T06:27:06.843Z,22.50
2022-09-26T06:28:06.880Z,22.50
2022-09-26T06:29:06.998Z,22.50
2022-09-26T06:30:06.958Z,22.50
2022-09-26T06:31:07.059Z,22.50
2022-09-26T06:32:07.116Z,22.50
2022-09-26T06:33:07.041Z,22.50
2022-09-26T06:34:07.078Z,22.50
2022-09-26T06:35:07.107Z,22.50
2022-09-26T06:36:07.142Z,22.50
2022-09-26T06:37:07.171Z,22.50
2022-09-26T06:38:07.217Z,22.50
2022-09-26T06:39:07.246Z,28.13
2022-09-26T06:40:07.268Z,28.13
2022-09-26T06:41:07.577Z,28.13
2022-09-26T06:42:07.424Z,28.13
2022-09-26T06:43:07.366Z,28.13
2022-09-26T06:44:07.404Z,28.13
2022-09-26T06:45:07.431Z,28.13
2022-09-26T06:46:07.467Z,28.13
2022-09-26T06:47:07.555Z,28.13
2022-09-26T06:48:07.547Z,28.13
2022-09-26T06:49:07.572Z,28.13
2022-09-26T06:50:07.597Z,28.13
2022-09-26T06:51:07.626Z,28.13
2022-09-26T06:52:07.663Z,28.13
2022-09-26T06:53:12.709Z,28.13
2022-09-26T06:54:07.725Z,28.13
2022-09-26T06:55:07.763Z,28.13
2022-09-26T06:56:07.792Z,28.13
2022-09-26T06:57:11.648Z,28.13
2022-09-26T06:58:07.856Z,33.75
2022-09-26T06:59:07.889Z,33.75
2022-09-26T07:00:07.924Z,33.75
2022-09-26T07:01:08.093Z,33.75
2022-09-26T07:02:08.217Z,33.75
2022-09-26T07:03:08.022Z,33.75
2022-09-26T07:04:08.052Z,33.75
2022-09-26T07:05:08.085Z,33.75
2022-09-26T07:06:08.118Z,33.75
2022-09-26T07:07:08.152Z,39.38
2022-09-26T07:08:08.183Z,39.38
2022-09-26T07:09:14.553Z,39.38
2022-09-26T07:10:08.248Z,39.38
2022-09-26T07:11:31.110Z,39.38
2022-09-26T07:12:16.070Z,39.38
2022-09-26T07:13:08.408Z,39.38
2022-09-26T07:14:08.378Z,39.38
2022-09-26T07:15:08.415Z,39.38
2022-09-26T07:16:08.485Z,39.38
2022-09-26T07:17:08.491Z,39.38
2022-09-26T07:18:08.510Z,39.38
2022-09-26T07:19:08.563Z,45.00
2022-09-26T07:20:08.579Z,45.00
2022-09-26T07:21:08.616Z,45.00
2022-09-26T07:22:08.641Z,45.00
2022-09-26T07:23:08.702Z,45.00
2022-09-26T07:24:08.711Z,45.00
2022-09-26T07:25:08.743Z,45.00
2022-09-26T07:26:08.781Z,45.00
2022-09-26T07:27:08.807Z,45.00
2022-09-26T07:28:08.838Z,50.63
2022-09-26T07:29:08.945Z,50.63
2022-09-26T07:30:08.907Z,50.63
2022-09-26T07:31:08.999Z,50.63
2022-09-26T07:32:08.972Z,50.63
2022-09-26T07:33:09.004Z,50.63
2022-09-26T07:34:09.078Z,50.63
2022-09-26T07:35:09.069Z,50.63
2022-09-26T07:36:09.103Z,50.63
2022-09-26T07:37:09.135Z,50.63
2022-09-26T07:38:09.165Z,50.63
2022-09-26T07:39:09.238Z,50.63
2022-09-26T07:40:09.232Z,50.63
2022-09-26T07:41:09.267Z,50.63
2022-09-26T07:42:09.301Z,50.63
2022-09-26T07:43:19.546Z,50.63
2022-09-26T07:45:24.748Z,50.63
2022-09-26T07:46:09.529Z,50.63
2022-09-26T07:47:09.464Z,50.63
2022-09-26T07:48:09.496Z,50.63
2022-09-26T07:49:09.534Z,50.63
2022-09-26T07:50:09.560Z,56.25
2022-09-26T07:51:09.597Z,56.25
2022-09-26T07:52:09.641Z,50.63
2022-09-26T07:53:09.663Z,50.63
2022-09-26T07:54:09.783Z,50.63
2022-09-26T07:55:09.735Z,50.63
2022-09-26T07:56:09.762Z,50.63
2022-09-26T07:57:09.801Z,50.63
2022-09-26T07:58:09.827Z,50.63
2022-09-26T07:59:09.862Z,50.63
2022-09-26T08:00:09.896Z,50.63
2022-09-26T08:01:09.953Z,50.63
2022-09-26T08:02:10.168Z,56.25
2022-09-26T08:03:10.054Z,61.88
2022-09-26T08:04:10.060Z,61.88
2022-09-26T08:05:10.061Z,56.25
2022-09-26T08:06:10.092Z,50.63
2022-09-26T08:07:10.126Z,50.63
2022-09-26T08:08:10.162Z,56.25
2022-09-26T08:09:10.240Z,56.25
2022-09-26T08:10:10.225Z,56.25
2022-09-26T08:11:10.261Z,61.88
2022-09-26T08:12:10.293Z,61.88
2022-09-26T08:13:10.329Z,50.63
2022-09-26T08:14:10.363Z,61.88
2022-09-26T08:15:10.396Z,67.50
2022-09-26T08:16:10.488Z,67.50
2022-09-26T08:17:14.090Z,67.50
2022-09-26T08:18:10.492Z,61.88
2022-09-26T08:19:10.528Z,61.88
2022-09-26T08:20:10.559Z,61.88
2022-09-26T08:21:10.594Z,56.25
2022-09-26T08:22:10.647Z,61.88
2022-09-26T08:23:10.665Z,61.88
2022-09-26T08:24:10.697Z,61.88
2022-09-26T08:25:10.730Z,61.88
2022-09-26T08:26:10.771Z,61.88
2022-09-26T08:27:10.794Z,61.88
2022-09-26T08:28:10.828Z,61.88
2022-09-26T08:29:10.861Z,67.50
2022-09-26T08:30:10.893Z,67.50
2022-09-26T08:31:10.988Z,67.50
2022-09-26T08:32:10.963Z,67.50
2022-09-26T08:33:10.999Z,67.50
2022-09-26T08:34:11.027Z,67.50
2022-09-26T08:35:11.064Z,73.13
2022-09-26T08:36:11.101Z,73.13
2022-09-26T08:37:11.140Z,73.13
2022-09-26T08:38:11.166Z,73.13
2022-09-26T08:39:11.200Z,73.13
2022-09-26T08:40:11.295Z,78.75
2022-09-26T08:41:11.265Z,73.13
2022-09-26T08:42:11.298Z,73.13
2022-09-26T08:43:11.341Z,73.13
2022-09-26T08:44:11.371Z,78.75
2022-09-26T08:45:11.401Z,84.38
2022-09-26T08:46:11.497Z,90.00
2022-09-26T08:47:11.467Z,84.38
2022-09-26T08:48:11.501Z,90.00
2022-09-26T08:49:11.544Z,45.00
2022-09-26T08:50:11.579Z,67.50
2022-09-26T08:51:11.602Z,95.63
2022-09-26T08:52:11.635Z,101.25
2022-09-26T08:53:11.672Z,95.63
2022-09-26T08:54:11.755Z,61.88
2022-09-26T08:55:11.737Z,95.63
2022-09-26T08:56:11.771Z,84.38
2022-09-26T08:57:11.813Z,95.63
2022-09-26T08:58:11.839Z,78.75
2022-09-26T08:59:11.874Z,112.50
2022-09-26T09:00:11.908Z,101.25
2022-09-26T09:01:11.974Z,95.63
2022-09-26T09:02:12.077Z,101.25
2022-09-26T09:03:12.042Z,101.25
2022-09-26T09:04:12.059Z,95.63
2022-09-26T09:05:12.083Z,95.63
2022-09-26T09:06:12.110Z,84.38
2022-09-26T09:07:12.146Z,101.25
2022-09-26T09:08:12.181Z,84.38
2022-09-26T09:09:12.221Z,84.38
2022-09-26T09:10:12.249Z,95.63
2022-09-26T09:11:12.284Z,95.63
2022-09-26T09:12:12.336Z,84.38
2022-09-26T09:13:12.352Z,95.63
2022-09-26T09:14:12.473Z,84.38
2022-09-26T09:15:25.157Z,90.00
2022-09-26T09:16:12.510Z,84.38
2022-09-26T09:17:12.489Z,90.00
2022-09-26T09:18:13.824Z,101.25
2022-09-26T09:19:12.558Z,101.25
2022-09-26T09:20:12.592Z,101.25
2022-09-26T09:21:12.630Z,95.63
2022-09-26T09:22:12.660Z,95.63
2022-09-26T09:23:12.697Z,106.88
2022-09-26T09:24:12.769Z,95.63
2022-09-26T09:25:12.766Z,95.63
2022-09-26T09:28:12.869Z,78.75
2022-09-26T09:29:18.693Z,95.63
2022-09-26T09:30:17.276Z,95.63
2022-09-26T09:31:13.000Z,95.63
2022-09-26T09:32:13.009Z,95.63
2022-09-26T09:33:13.049Z,112.50
2022-09-26T09:34:13.098Z,112.50
2022-09-26T09:35:13.113Z,84.38
2022-09-26T09:36:13.153Z,84.38
2022-09-26T09:37:13.212Z,84.38
2022-09-26T09:38:13.215Z,84.38
2022-09-26T09:39:13.253Z,106.88
2022-09-26T09:40:13.304Z,118.13
2022-09-26T09:41:13.323Z,101.25
2022-09-26T09:42:13.358Z,95.63
2022-09-26T09:43:13.391Z,95.63
2022-09-26T09:44:13.553Z,101.25
2022-09-26T09:45:13.464Z,101.25
2022-09-26T09:46:13.529Z,95.63
2022-09-26T09:47:13.533Z,84.38
2022-09-26T09:48:13.565Z,95.63
2022-09-26T09:49:13.603Z,101.25
2022-09-26T09:50:13.638Z,95.63
2022-09-26T09:51:13.670Z,90.00
2022-09-26T09:52:13.705Z,112.50
2022-09-26T09:53:13.748Z,90.00
2022-09-26T09:54:13.832Z,78.75
2022-09-26T09:55:13.811Z,84.38
2022-09-26T09:56:13.848Z,95.63
2022-09-26T09:57:13.885Z,95.63
2022-09-26T09:58:13.917Z,101.25
2022-09-26T09:59:13.951Z,101.25
2022-09-26T10:00:13.985Z,101.25
2022-09-26T10:01:14.022Z,101.25
2022-09-26T10:02:14.067Z,106.88
2022-09-26T10:03:14.175Z,112.50
2022-09-26T10:04:14.288Z,112.50
2022-09-26T10:05:14.162Z,118.13
2022-09-26T10:06:44.238Z,118.13
2022-09-26T10:07:14.239Z,118.13
2022-09-26T10:08:14.268Z,84.38
2022-09-26T10:09:39.096Z,101.25
2022-09-26T10:10:14.338Z,106.88
2022-09-26T10:11:14.372Z,151.88
2022-09-26T10:12:14.409Z,129.38
2022-09-26T10:13:14.444Z,73.13
2022-09-26T10:14:14.603Z,45.00
2022-09-26T10:15:14.513Z,39.38
2022-09-26T10:16:14.614Z,39.38
2022-09-26T10:17:14.583Z,39.38
2022-09-26T10:18:27.740Z,33.75
2022-09-26T10:19:14.655Z,33.75
2022-09-26T10:20:14.758Z,33.75
2022-09-26T10:21:14.728Z,33.75
2022-09-26T10:22:14.759Z,28.13
2022-09-26T10:23:14.797Z,28.13
2022-09-26T10:24:14.945Z,22.50
2022-09-26T10:25:14.880Z,22.50
2022-09-26T10:26:14.901Z,22.50
2022-09-26T10:27:14.939Z,22.50
2022-09-26T10:28:14.972Z,28.13
2022-09-26T10:29:15.008Z,28.13
2022-09-26T10:30:15.096Z,28.13
2022-09-26T10:31:15.135Z,33.75
2022-09-26T10:32:15.113Z,33.75
2022-09-26T10:33:15.151Z,39.38
2022-09-26T10:34:15.356Z,50.63
2022-09-26T10:35:19.397Z,61.88
2022-09-26T10:36:15.259Z,78.75
2022-09-26T10:37:15.293Z,84.38
2022-09-26T10:38:15.325Z,78.75
2022-09-26T10:39:15.371Z,78.75
2022-09-26T10:40:15.612Z,78.75
2022-09-26T10:41:15.442Z,78.75
2022-09-26T10:42:15.465Z,78.75
2022-09-26T10:43:15.502Z,73.13
2022-09-26T10:44:15.727Z,61.88
2022-09-26T10:45:15.573Z,61.88
2022-09-26T10:46:15.682Z,56.25
2022-09-26T10:47:15.642Z,50.63
2022-09-26T10:48:15.681Z,45.00
2022-09-26T10:49:15.718Z,45.00
2022-09-26T10:50:15.747Z,45.00
2022-09-26T10:51:15.804Z,45.00
2022-09-26T10:52:18.639Z,39.38
2022-09-26T10:53:15.853Z,39.38
2022-09-26T10:54:16.057Z,39.38
2022-09-26T10:55:15.923Z,33.75
2022-09-26T10:56:15.963Z,33.75
2022-09-26T10:57:16.232Z,28.13
2022-09-26T10:58:16.028Z,28.13
2022-09-26T10:59:16.062Z,28.13
2022-09-26T11:00:16.097Z,28.13
2022-09-26T11:01:16.150Z,28.13
2022-09-26T11:02:16.166Z,33.75
2022-09-26T11:03:16.303Z,33.75
2022-09-26T11:04:16.336Z,28.13
2022-09-26T11:05:16.275Z,28.13
2022-09-26T11:06:20.523Z,28.13
2022-09-26T11:07:16.344Z,28.13
2022-09-26T11:08:16.376Z,22.50
2022-09-26T11:09:16.413Z,22.50
2022-09-26T11:10:16.455Z,16.88
2022-09-26T11:11:16.484Z,22.50
2022-09-26T11:12:16.522Z,22.50
2022-09-26T11:13:16.591Z,28.13
2022-09-26T11:14:16.588Z,28.13
2022-09-26T11:15:16.620Z,33.75
2022-09-26T11:16:16.723Z,39.38
2022-09-26T11:17:16.691Z,45.00
2022-09-26T11:18:16.726Z,50.63
2022-09-26T11:19:16.759Z,61.88
2022-09-26T11:20:16.796Z,78.75
2022-09-26T11:21:28.367Z,78.75
2022-09-26T11:22:16.866Z,56.25
2022-09-26T11:23:16.898Z,56.25
2022-09-26T11:24:16.937Z,50.63
2022-09-26T11:25:16.970Z,50.63
2022-09-26T11:26:17.016Z,50.63
2022-09-26T11:27:17.046Z,56.25
2022-09-26T11:28:17.074Z,56.25
2022-09-26T11:29:17.337Z,56.25
2022-09-26T11:30:17.144Z,61.88
2022-09-26T11:31:17.213Z,67.50
2022-09-26T11:32:17.217Z,73.13
2022-09-26T11:33:17.246Z,78.75
2022-09-26T11:34:17.283Z,78.75
2022-09-26T11:35:17.320Z,84.38
2022-09-26T11:36:17.442Z,95.63
2022-09-26T11:37:17.459Z,118.13
2022-09-26T11:38:18.252Z,146.25
2022-09-26T11:39:18.757Z,185.63
2022-09-26T11:40:17.655Z,180.00
2022-09-26T11:41:18.256Z,157.50
2022-09-26T11:42:17.596Z,146.25
2022-09-26T11:43:17.694Z,123.75
2022-09-26T11:44:17.714Z,95.63
2022-09-26T11:45:17.722Z,78.75
2022-09-26T11:46:18.377Z,73.13
2022-09-26T11:47:19.255Z,67.50
2022-09-26T11:48:18.767Z,67.50
2022-09-26T11:49:18.757Z,67.50
2022-09-26T11:50:18.768Z,73.13
2022-09-26T11:51:17.961Z,73.13
2022-09-26T11:52:18.760Z,78.75
2022-09-26T11:53:25.155Z,90.00
2022-09-26T11:55:11.112Z,84.38
2022-09-26T11:56:11.143Z,84.38
2022-09-26T11:58:04.315Z,95.63
2022-09-26T11:59:04.338Z,95.63
2022-09-26T12:00:57.580Z,106.88
2022-09-26T12:01:57.583Z,106.88
2022-09-26T12:03:50.847Z,95.63
2022-09-26T12:04:50.785Z,84.38
2022-09-26T12:06:43.957Z,123.75
2022-09-26T12:07:43.987Z,140.63
2022-09-26T12:09:48.052Z,157.50
2022-09-26T12:10:48.078Z,163.13
2022-09-26T12:12:52.132Z,174.38
2022-09-26T12:13:52.159Z,174.38
2022-09-26T12:15:45.211Z,157.50
2022-09-26T12:16:45.181Z,157.50
2022-09-26T12:18:38.351Z,163.13
2022-09-26T12:19:38.381Z,174.38
2022-09-26T12:21:31.551Z,191.25
2022-09-26T12:22:31.579Z,163.13
2022-09-26T12:24:24.785Z,174.38
2022-09-26T12:25:24.789Z,135.00
2022-09-26T12:27:17.935Z,129.38
2022-09-26T12:28:17.970Z,112.50
2022-09-26T12:30:11.144Z,84.38
2022-09-26T12:31:12.508Z,73.13
2022-09-26T12:33:04.360Z,56.25
2022-09-26T12:34:04.376Z,45.00
2022-09-26T12:35:57.352Z,39.38
2022-09-26T12:36:57.384Z,33.75
2022-09-26T12:38:55.772Z,28.13
2022-09-26T12:39:50.577Z,28.13
2022-09-26T12:41:54.671Z,22.50
2022-09-26T12:42:54.689Z,22.50
2022-09-26T12:44:47.687Z,22.50
2022-09-26T12:45:52.474Z,22.50
2022-09-26T12:47:51.782Z,28.13
2022-09-26T12:48:51.833Z,28.13
2022-09-26T12:50:44.979Z,33.75
2022-09-26T12:51:45.010Z,33.75
2022-09-26T12:53:38.177Z,39.38
2022-09-26T12:54:38.208Z,45.00
2022-09-26T12:56:31.368Z,50.63
2022-09-26T12:57:31.398Z,56.25
2022-09-26T12:59:24.600Z,61.88
2022-09-26T13:00:24.596Z,56.25
2022-09-26T13:02:17.633Z,56.25
2022-09-26T13:03:17.694Z,50.63
2022-09-26T13:05:10.779Z,39.38
2022-09-26T13:06:10.805Z,33.75
2022-09-26T13:08:03.971Z,28.13
2022-09-26T13:09:04.002Z,28.13
2022-09-26T13:10:57.203Z,28.13
2022-09-26T13:11:57.195Z,28.13
2022-09-26T13:13:50.358Z,33.75
2022-09-26T13:14:50.386Z,33.75
2022-09-26T13:16:43.551Z,39.38
2022-09-26T13:17:43.575Z,39.38
2022-09-26T13:19:36.739Z,45.00
2022-09-26T13:20:36.773Z,45.00
2022-09-26T13:22:40.886Z,45.00
2022-09-26T13:23:40.878Z,45.00
2022-09-26T13:25:33.859Z,45.00
2022-09-26T13:26:33.887Z,45.00
2022-09-26T13:28:27.077Z,50.63
2022-09-26T13:29:27.378Z,50.63
2022-09-26T13:31:20.295Z,61.88
2022-09-26T13:32:20.299Z,67.50
2022-09-26T13:34:13.480Z,73.13
2022-09-26T13:35:13.513Z,78.75
2022-09-26T13:37:17.607Z,95.63
2022-09-26T13:38:17.581Z,106.88